sensor_id;sensor_type;location;lat;lon;timestamp;temperature;humidity
10873;DHT22;34586;53.616;10.032;2023-04-15T00:01:05;8.30;99.90
10873;DHT22;34586;53.616;10.032;2023-04-15T00:03:31;8.20;99.90
10873;DHT22;34586;53.616;10.032;2023-04-15T00:05:58;8.30;99.90
10873;DHT22;34586;53.616;10.032;2023-04-15T00:08:24;8.30;99.90
10873;DHT22;34586;53.616;10.032;2023-04-15T00:10:50;8.30;99.90
10873;DHT22;34586;53.616;10.032;2023-04-15T00:13:15;8.20;99.90
10873;DHT22;34586;53.616;10.032;2023-04-15T00:15:41;8.20;99.90
10873;DHT22;34586;53.616;10.032;2023-04-15T00:18:07;8.20;99.90
10873;DHT22;34586;53.616;10.032;2023-04-15T00:20:34;8.20;99.90
10873;DHT22;34586;53.616;10.032;2023-04-15T00:23:00;8.20;99.90
10873;DHT22;34586;53.616;10.032;2023-04-15T00:25:26;8.20;99.90
10873;DHT22;34586;53.616;10.032;2023-04-15T00:27:52;8.20;99.90
10873;DHT22;34586;53.616;10.032;2023-04-15T00:30:18;8.20;99.90
10873;DHT22;34586;53.616;10.032;2023-04-15T00:32:44;8.10;99.90
10873;DHT22;34586;53.616;10.032;2023-04-15T00:35:11;8.20;99.90
10873;DHT22;34586;53.616;10.032;2023-04-15T00:37:37;8.10;99.90
10873;DHT22;34586;53.616;10.032;2023-04-15T00:40:02;8.20;99.90
10873;DHT22;34586;53.616;10.032;2023-04-15T00:42:30;8.20;99.90
10873;DHT22;34586;53.616;10.032;2023-04-15T00:44:56;8.20;99.90
10873;DHT22;34586;53.616;10.032;2023-04-15T00:47:22;8.20;99.90
10873;DHT22;34586;53.616;10.032;2023-04-15T00:49:48;8.20;99.90
10873;DHT22;34586;53.616;10.032;2023-04-15T00:52:13;8.20;99.90
10873;DHT22;34586;53.616;10.032;2023-04-15T00:54:39;8.20;99.90
10873;DHT22;34586;53.616;10.032;2023-04-15T00:57:05;8.20;99.90
10873;DHT22;34586;53.616;10.032;2023-04-15T00:59:32;8.20;99.90
10873;DHT22;34586;53.616;10.032;2023-04-15T01:01:58;8.20;99.90
10873;DHT22;34586;53.616;10.032;2023-04-15T01:04:24;8.20;99.90
10873;DHT22;34586;53.616;10.032;2023-04-15T01:06:50;8.20;99.90
10873;DHT22;34586;53.616;10.032;2023-04-15T01:09:16;8.20;99.90
10873;DHT22;34586;53.616;10.032;2023-04-15T01:11:42;8.20;99.90
10873;DHT22;34586;53.616;10.032;2023-04-15T01:14:09;8.20;99.90
10873;DHT22;34586;53.616;10.032;2023-04-15T01:16:36;8.20;99.90
10873;DHT22;34586;53.616;10.032;2023-04-15T01:19:05;8.20;99.90
10873;DHT22;34586;53.616;10.032;2023-04-15T01:21:36;8.20;99.90
10873;DHT22;34586;53.616;10.032;2023-04-15T01:24:08;8.20;99.90
10873;DHT22;34586;53.616;10.032;2023-04-15T01:26:37;8.20;99.90
10873;DHT22;34586;53.616;10.032;2023-04-15T01:29:02;8.20;99.90
10873;DHT22;34586;53.616;10.032;2023-04-15T01:31:28;8.20;99.90
10873;DHT22;34586;53.616;10.032;2023-04-15T01:33:54;8.20;99.90
10873;DHT22;34586;53.616;10.032;2023-04-15T01:36:19;8.20;99.90
10873;DHT22;34586;53.616;10.032;2023-04-15T01:38:45;8.20;99.90
10873;DHT22;34586;53.616;10.032;2023-04-15T01:41:13;8.10;99.90
10873;DHT22;34586;53.616;10.032;2023-04-15T01:43:38;8.10;99.90
10873;DHT22;34586;53.616;10.032;2023-04-15T01:46:04;8.10;99.90
10873;DHT22;34586;53.616;10.032;2023-04-15T01:48:30;8.10;99.90
10873;DHT22;34586;53.616;10.032;2023-04-15T01:50:57;8.10;99.90
10873;DHT22;34586;53.616;10.032;2023-04-15T01:53:25;7.40;99.90
10873;DHT22;34586;53.616;10.032;2023-04-15T01:55:51;8.10;99.90
10873;DHT22;34586;53.616;10.032;2023-04-15T01:58:17;8.20;99.90
10873;DHT22;34586;53.616;10.032;2023-04-15T02:00:43;8.20;99.90
10873;DHT22;34586;53.616;10.032;2023-04-15T02:03:09;8.20;99.90
10873;DHT22;34586;53.616;10.032;2023-04-15T02:05:35;8.10;99.90
10873;DHT22;34586;53.616;10.032;2023-04-15T02:08:01;8.20;99.90
10873;DHT22;34586;53.616;10.032;2023-04-15T02:10:27;8.10;99.90
10873;DHT22;34586;53.616;10.032;2023-04-15T02:12:52;8.10;99.90
10873;DHT22;34586;53.616;10.032;2023-04-15T02:15:18;8.10;99.90
10873;DHT22;34586;53.616;10.032;2023-04-15T02:17:44;8.20;99.90
10873;DHT22;34586;53.616;10.032;2023-04-15T02:20:15;8.20;99.90
10873;DHT22;34586;53.616;10.032;2023-04-15T02:22:41;8.20;99.90
10873;DHT22;34586;53.616;10.032;2023-04-15T02:25:07;8.20;99.90
10873;DHT22;34586;53.616;10.032;2023-04-15T02:27:34;8.20;99.90
10873;DHT22;34586;53.616;10.032;2023-04-15T02:30:00;8.20;99.90
10873;DHT22;34586;53.616;10.032;2023-04-15T02:32:26;8.20;99.90
10873;DHT22;34586;53.616;10.032;2023-04-15T02:34:51;8.20;99.90
10873;DHT22;34586;53.616;10.032;2023-04-15T02:37:17;8.20;99.90
10873;DHT22;34586;53.616;10.032;2023-04-15T02:39:44;8.30;99.90
10873;DHT22;34586;53.616;10.032;2023-04-15T02:42:10;8.40;99.90
10873;DHT22;34586;53.616;10.032;2023-04-15T02:44:36;8.30;99.90
10873;DHT22;34586;53.616;10.032;2023-04-15T02:47:02;8.30;99.90
10873;DHT22;34586;53.616;10.032;2023-04-15T02:49:29;8.20;99.90
10873;DHT22;34586;53.616;10.032;2023-04-15T02:51:55;8.20;99.90
10873;DHT22;34586;53.616;10.032;2023-04-15T02:54:23;8.20;99.90
10873;DHT22;34586;53.616;10.032;2023-04-15T02:56:49;8.20;99.90
10873;DHT22;34586;53.616;10.032;2023-04-15T02:59:15;8.20;99.90
10873;DHT22;34586;53.616;10.032;2023-04-15T03:01:41;8.20;99.90
10873;DHT22;34586;53.616;10.032;2023-04-15T03:04:06;8.40;99.90
10873;DHT22;34586;53.616;10.032;2023-04-15T03:06:33;8.20;99.90
10873;DHT22;34586;53.616;10.032;2023-04-15T03:08:59;8.40;99.90
10873;DHT22;34586;53.616;10.032;2023-04-15T03:11:27;8.30;99.90
10873;DHT22;34586;53.616;10.032;2023-04-15T03:13:53;8.30;99.90
10873;DHT22;34586;53.616;10.032;2023-04-15T03:16:18;8.40;99.90
10873;DHT22;34586;53.616;10.032;2023-04-15T03:18:44;8.30;99.90
10873;DHT22;34586;53.616;10.032;2023-04-15T03:21:09;8.30;99.90
10873;DHT22;34586;53.616;10.032;2023-04-15T03:23:35;8.40;99.90
10873;DHT22;34586;53.616;10.032;2023-04-15T03:26:01;8.30;99.90
10873;DHT22;34586;53.616;10.032;2023-04-15T03:28:27;8.30;99.90
10873;DHT22;34586;53.616;10.032;2023-04-15T03:30:54;8.30;99.90
10873;DHT22;34586;53.616;10.032;2023-04-15T03:33:19;8.30;99.90
10873;DHT22;34586;53.616;10.032;2023-04-15T03:35:45;8.30;99.90
10873;DHT22;34586;53.616;10.032;2023-04-15T03:38:11;8.40;99.90
10873;DHT22;34586;53.616;10.032;2023-04-15T03:40:39;8.40;99.90
10873;DHT22;34586;53.616;10.032;2023-04-15T03:43:05;8.30;99.90
10873;DHT22;34586;53.616;10.032;2023-04-15T03:45:31;8.30;99.90
10873;DHT22;34586;53.616;10.032;2023-04-15T03:47:57;8.30;99.90
10873;DHT22;34586;53.616;10.032;2023-04-15T03:50:22;8.30;99.90
10873;DHT22;34586;53.616;10.032;2023-04-15T03:52:48;8.40;99.90
10873;DHT22;34586;53.616;10.032;2023-04-15T03:55:14;8.30;99.90
10873;DHT22;34586;53.616;10.032;2023-04-15T03:57:40;8.40;99.90
10873;DHT22;34586;53.616;10.032;2023-04-15T04:00:07;8.50;99.90
10873;DHT22;34586;53.616;10.032;2023-04-15T04:02:33;8.40;99.90
10873;DHT22;34586;53.616;10.032;2023-04-15T04:04:59;8.40;99.90
10873;DHT22;34586;53.616;10.032;2023-04-15T04:07:25;8.40;99.90
10873;DHT22;34586;53.616;10.032;2023-04-15T04:09:51;8.40;99.90
10873;DHT22;34586;53.616;10.032;2023-04-15T04:12:16;8.40;99.90
10873;DHT22;34586;53.616;10.032;2023-04-15T04:14:42;8.40;99.90
10873;DHT22;34586;53.616;10.032;2023-04-15T04:17:08;8.40;99.90
10873;DHT22;34586;53.616;10.032;2023-04-15T04:19:34;8.40;99.90
10873;DHT22;34586;53.616;10.032;2023-04-15T04:22:00;8.40;99.90
10873;DHT22;34586;53.616;10.032;2023-04-15T04:24:25;8.40;99.90
10873;DHT22;34586;53.616;10.032;2023-04-15T04:26:51;8.40;99.90
10873;DHT22;34586;53.616;10.032;2023-04-15T04:29:16;8.40;99.90
10873;DHT22;34586;53.616;10.032;2023-04-15T04:31:42;8.40;99.90
10873;DHT22;34586;53.616;10.032;2023-04-15T04:34:08;8.40;99.90
10873;DHT22;34586;53.616;10.032;2023-04-15T04:36:33;8.40;99.90
10873;DHT22;34586;53.616;10.032;2023-04-15T04:38:59;8.40;99.90
10873;DHT22;34586;53.616;10.032;2023-04-15T04:41:25;8.40;99.90
10873;DHT22;34586;53.616;10.032;2023-04-15T04:43:51;8.50;99.90
10873;DHT22;34586;53.616;10.032;2023-04-15T04:46:17;8.50;99.90
10873;DHT22;34586;53.616;10.032;2023-04-15T04:48:42;8.50;99.90
10873;DHT22;34586;53.616;10.032;2023-04-15T04:51:08;8.50;99.90
10873;DHT22;34586;53.616;10.032;2023-04-15T04:53:34;8.40;99.90
10873;DHT22;34586;53.616;10.032;2023-04-15T04:56:02;8.40;99.90
10873;DHT22;34586;53.616;10.032;2023-04-15T04:58:28;8.40;99.90
10873;DHT22;34586;53.616;10.032;2023-04-15T05:00:53;8.40;99.90
10873;DHT22;34586;53.616;10.032;2023-04-15T05:03:19;8.40;99.90
10873;DHT22;34586;53.616;10.032;2023-04-15T05:05:46;8.40;99.90
10873;DHT22;34586;53.616;10.032;2023-04-15T05:08:13;8.40;99.90
10873;DHT22;34586;53.616;10.032;2023-04-15T05:10:39;8.40;99.90
10873;DHT22;34586;53.616;10.032;2023-04-15T05:13:05;8.50;99.90
10873;DHT22;34586;53.616;10.032;2023-04-15T05:15:31;8.50;99.90
10873;DHT22;34586;53.616;10.032;2023-04-15T05:17:57;8.50;99.90
10873;DHT22;34586;53.616;10.032;2023-04-15T05:20:23;8.50;99.90
10873;DHT22;34586;53.616;10.032;2023-04-15T05:22:48;8.50;99.90
10873;DHT22;34586;53.616;10.032;2023-04-15T05:25:14;8.60;99.90
10873;DHT22;34586;53.616;10.032;2023-04-15T05:27:40;8.60;99.90
10873;DHT22;34586;53.616;10.032;2023-04-15T05:30:06;8.70;99.90
10873;DHT22;34586;53.616;10.032;2023-04-15T05:32:33;8.60;99.90
10873;DHT22;34586;53.616;10.032;2023-04-15T05:34:58;8.70;99.90
10873;DHT22;34586;53.616;10.032;2023-04-15T05:37:24;8.60;99.90
10873;DHT22;34586;53.616;10.032;2023-04-15T05:39:49;8.60;99.90
10873;DHT22;34586;53.616;10.032;2023-04-15T05:42:15;8.60;99.90
10873;DHT22;34586;53.616;10.032;2023-04-15T05:44:41;8.60;99.90
10873;DHT22;34586;53.616;10.032;2023-04-15T05:47:06;8.70;99.90
10873;DHT22;34586;53.616;10.032;2023-04-15T05:49:34;8.70;99.90
10873;DHT22;34586;53.616;10.032;2023-04-15T05:51:59;8.60;99.90
10873;DHT22;34586;53.616;10.032;2023-04-15T05:54:25;8.60;99.90
10873;DHT22;34586;53.616;10.032;2023-04-15T05:56:52;8.60;99.90
10873;DHT22;34586;53.616;10.032;2023-04-15T05:59:18;8.60;99.90
10873;DHT22;34586;53.616;10.032;2023-04-15T06:01:43;8.60;99.90
10873;DHT22;34586;53.616;10.032;2023-04-15T06:04:09;8.70;99.90
10873;DHT22;34586;53.616;10.032;2023-04-15T06:06:36;8.70;99.90
10873;DHT22;34586;53.616;10.032;2023-04-15T06:09:03;8.70;99.90
10873;DHT22;34586;53.616;10.032;2023-04-15T06:11:28;8.70;99.90
10873;DHT22;34586;53.616;10.032;2023-04-15T06:13:54;8.70;99.90
10873;DHT22;34586;53.616;10.032;2023-04-15T06:16:19;8.80;99.90
10873;DHT22;34586;53.616;10.032;2023-04-15T06:18:45;8.80;99.90
10873;DHT22;34586;53.616;10.032;2023-04-15T06:21:11;8.80;99.90
10873;DHT22;34586;53.616;10.032;2023-04-15T06:23:37;8.70;99.90
10873;DHT22;34586;53.616;10.032;2023-04-15T06:26:02;8.80;99.90
10873;DHT22;34586;53.616;10.032;2023-04-15T06:28:28;8.80;99.90
10873;DHT22;34586;53.616;10.032;2023-04-15T06:30:55;8.80;99.90
10873;DHT22;34586;53.616;10.032;2023-04-15T06:33:20;8.80;99.90
10873;DHT22;34586;53.616;10.032;2023-04-15T06:35:46;8.80;99.90
10873;DHT22;34586;53.616;10.032;2023-04-15T06:38:13;8.80;99.90
10873;DHT22;34586;53.616;10.032;2023-04-15T06:40:39;8.80;99.90
10873;DHT22;34586;53.616;10.032;2023-04-15T06:43:05;8.90;99.90
10873;DHT22;34586;53.616;10.032;2023-04-15T06:45:31;8.90;99.90
10873;DHT22;34586;53.616;10.032;2023-04-15T06:47:57;8.90;99.90
10873;DHT22;34586;53.616;10.032;2023-04-15T06:50:22;9.00;99.90
10873;DHT22;34586;53.616;10.032;2023-04-15T06:52:48;9.10;99.90
10873;DHT22;34586;53.616;10.032;2023-04-15T06:55:14;8.90;99.90
10873;DHT22;34586;53.616;10.032;2023-04-15T06:57:39;9.10;99.90
10873;DHT22;34586;53.616;10.032;2023-04-15T07:00:06;9.10;99.90
10873;DHT22;34586;53.616;10.032;2023-04-15T07:02:32;9.10;99.90
10873;DHT22;34586;53.616;10.032;2023-04-15T07:04:58;9.00;99.90
10873;DHT22;34586;53.616;10.032;2023-04-15T07:07:23;9.00;99.90
10873;DHT22;34586;53.616;10.032;2023-04-15T07:09:50;9.00;99.90
10873;DHT22;34586;53.616;10.032;2023-04-15T07:12:18;9.00;99.90
10873;DHT22;34586;53.616;10.032;2023-04-15T07:14:43;9.00;99.90
10873;DHT22;34586;53.616;10.032;2023-04-15T07:17:09;9.00;99.90
10873;DHT22;34586;53.616;10.032;2023-04-15T07:19:35;9.10;99.90
10873;DHT22;34586;53.616;10.032;2023-04-15T07:22:01;9.20;99.90
10873;DHT22;34586;53.616;10.032;2023-04-15T07:24:26;9.00;99.90
10873;DHT22;34586;53.616;10.032;2023-04-15T07:26:55;9.10;99.90
10873;DHT22;34586;53.616;10.032;2023-04-15T07:29:22;9.10;99.90
10873;DHT22;34586;53.616;10.032;2023-04-15T07:31:48;9.20;99.90
10873;DHT22;34586;53.616;10.032;2023-04-15T07:34:14;9.20;99.90
10873;DHT22;34586;53.616;10.032;2023-04-15T07:36:39;9.20;99.90
10873;DHT22;34586;53.616;10.032;2023-04-15T07:39:05;9.10;99.90
10873;DHT22;34586;53.616;10.032;2023-04-15T07:41:31;9.10;99.90
10873;DHT22;34586;53.616;10.032;2023-04-15T07:43:56;9.50;99.90
10873;DHT22;34586;53.616;10.032;2023-04-15T07:46:22;9.20;99.90
10873;DHT22;34586;53.616;10.032;2023-04-15T07:48:49;9.20;99.90
10873;DHT22;34586;53.616;10.032;2023-04-15T07:51:15;9.20;99.90
10873;DHT22;34586;53.616;10.032;2023-04-15T07:53:42;9.30;99.90
10873;DHT22;34586;53.616;10.032;2023-04-15T07:56:08;9.40;99.90
10873;DHT22;34586;53.616;10.032;2023-04-15T07:58:34;9.40;99.90
10873;DHT22;34586;53.616;10.032;2023-04-15T08:01:00;9.40;99.90
10873;DHT22;34586;53.616;10.032;2023-04-15T08:03:26;9.50;99.90
10873;DHT22;34586;53.616;10.032;2023-04-15T08:05:52;9.50;99.90
10873;DHT22;34586;53.616;10.032;2023-04-15T08:08:18;9.60;99.90
10873;DHT22;34586;53.616;10.032;2023-04-15T08:10:44;9.60;99.90
10873;DHT22;34586;53.616;10.032;2023-04-15T08:13:09;9.60;99.90
10873;DHT22;34586;53.616;10.032;2023-04-15T08:15:36;9.60;99.90
10873;DHT22;34586;53.616;10.032;2023-04-15T08:18:02;9.60;99.90
10873;DHT22;34586;53.616;10.032;2023-04-15T08:20:28;9.60;99.90
10873;DHT22;34586;53.616;10.032;2023-04-15T08:22:54;9.60;99.90
10873;DHT22;34586;53.616;10.032;2023-04-15T08:25:20;9.60;99.90
10873;DHT22;34586;53.616;10.032;2023-04-15T08:27:46;9.60;99.90
10873;DHT22;34586;53.616;10.032;2023-04-15T08:30:12;9.70;99.90
10873;DHT22;34586;53.616;10.032;2023-04-15T08:32:38;9.80;99.90
10873;DHT22;34586;53.616;10.032;2023-04-15T08:35:04;9.80;99.90
10873;DHT22;34586;53.616;10.032;2023-04-15T08:37:30;9.90;99.90
10873;DHT22;34586;53.616;10.032;2023-04-15T08:39:56;9.90;99.90
10873;DHT22;34586;53.616;10.032;2023-04-15T08:42:35;9.90;99.90
10873;DHT22;34586;53.616;10.032;2023-04-15T08:45:03;10.00;99.90
10873;DHT22;34586;53.616;10.032;2023-04-15T08:47:30;10.00;99.90
10873;DHT22;34586;53.616;10.032;2023-04-15T08:49:59;10.00;99.90
10873;DHT22;34586;53.616;10.032;2023-04-15T08:52:30;9.90;99.90
10873;DHT22;34586;53.616;10.032;2023-04-15T08:54:57;10.00;99.90
10873;DHT22;34586;53.616;10.032;2023-04-15T08:57:26;10.10;99.90
10873;DHT22;34586;53.616;10.032;2023-04-15T08:59:52;10.10;99.90
10873;DHT22;34586;53.616;10.032;2023-04-15T09:02:19;10.20;99.90
10873;DHT22;34586;53.616;10.032;2023-04-15T09:04:45;10.20;99.90
10873;DHT22;34586;53.616;10.032;2023-04-15T09:07:10;10.30;99.90
10873;DHT22;34586;53.616;10.032;2023-04-15T09:09:36;10.40;99.90
10873;DHT22;34586;53.616;10.032;2023-04-15T09:12:04;10.40;99.90
10873;DHT22;34586;53.616;10.032;2023-04-15T09:14:30;10.50;99.90
10873;DHT22;34586;53.616;10.032;2023-04-15T09:17:00;10.60;99.90
10873;DHT22;34586;53.616;10.032;2023-04-15T09:19:26;10.60;99.90
10873;DHT22;34586;53.616;10.032;2023-04-15T09:21:57;10.70;99.90
10873;DHT22;34586;53.616;10.032;2023-04-15T09:24:24;10.70;99.90
10873;DHT22;34586;53.616;10.032;2023-04-15T09:26:53;10.80;99.90
10873;DHT22;34586;53.616;10.032;2023-04-15T09:29:24;11.10;99.90
10873;DHT22;34586;53.616;10.032;2023-04-15T09:31:51;11.20;99.90
10873;DHT22;34586;53.616;10.032;2023-04-15T09:34:17;11.30;99.90
10873;DHT22;34586;53.616;10.032;2023-04-15T09:36:55;11.40;99.90
10873;DHT22;34586;53.616;10.032;2023-04-15T09:39:22;11.70;99.90
10873;DHT22;34586;53.616;10.032;2023-04-15T09:42:03;11.80;99.90
10873;DHT22;34586;53.616;10.032;2023-04-15T09:44:30;12.00;99.90
10873;DHT22;34586;53.616;10.032;2023-04-15T09:46:55;12.00;99.90
10873;DHT22;34586;53.616;10.032;2023-04-15T09:49:21;12.10;99.90
10873;DHT22;34586;53.616;10.032;2023-04-15T09:51:47;12.20;99.90
10873;DHT22;34586;53.616;10.032;2023-04-15T09:54:18;12.20;99.90
10873;DHT22;34586;53.616;10.032;2023-04-15T09:56:45;12.20;99.90
10873;DHT22;34586;53.616;10.032;2023-04-15T09:59:11;12.20;99.90
10873;DHT22;34586;53.616;10.032;2023-04-15T10:01:37;12.20;99.90
10873;DHT22;34586;53.616;10.032;2023-04-15T10:04:06;12.20;99.90
10873;DHT22;34586;53.616;10.032;2023-04-15T10:06:33;12.20;99.90
10873;DHT22;34586;53.616;10.032;2023-04-15T10:08:59;12.40;99.90
10873;DHT22;34586;53.616;10.032;2023-04-15T10:11:28;12.60;99.90
10873;DHT22;34586;53.616;10.032;2023-04-15T10:13:58;12.40;99.90
10873;DHT22;34586;53.616;10.032;2023-04-15T10:16:26;12.40;99.90
10873;DHT22;34586;53.616;10.032;2023-04-15T10:18:56;12.60;99.90
10873;DHT22;34586;53.616;10.032;2023-04-15T10:21:27;12.90;99.90
10873;DHT22;34586;53.616;10.032;2023-04-15T10:23:54;13.00;99.90
10873;DHT22;34586;53.616;10.032;2023-04-15T10:26:20;13.10;99.90
10873;DHT22;34586;53.616;10.032;2023-04-15T10:28:46;13.30;99.90
10873;DHT22;34586;53.616;10.032;2023-04-15T10:31:13;13.50;99.90
10873;DHT22;34586;53.616;10.032;2023-04-15T10:33:43;13.40;99.90
10873;DHT22;34586;53.616;10.032;2023-04-15T10:36:10;13.50;99.90
10873;DHT22;34586;53.616;10.032;2023-04-15T10:38:44;13.40;99.90
10873;DHT22;34586;53.616;10.032;2023-04-15T10:41:27;13.40;99.90
10873;DHT22;34586;53.616;10.032;2023-04-15T10:46:44;13.50;99.90
10873;DHT22;34586;53.616;10.032;2023-04-15T10:49:23;13.50;99.90
10873;DHT22;34586;53.616;10.032;2023-04-15T10:51:56;13.60;99.90
10873;DHT22;34586;53.616;10.032;2023-04-15T10:57:05;13.80;99.90
10873;DHT22;34586;53.616;10.032;2023-04-15T10:59:35;13.90;99.90
10873;DHT22;34586;53.616;10.032;2023-04-15T11:02:06;14.20;99.90
10873;DHT22;34586;53.616;10.032;2023-04-15T11:12:41;14.40;99.90
10873;DHT22;34586;53.616;10.032;2023-04-15T11:17:52;14.40;99.90
10873;DHT22;34586;53.616;10.032;2023-04-15T11:20:18;14.50;99.90
10873;DHT22;34586;53.616;10.032;2023-04-15T11:22:51;14.10;99.90
10873;DHT22;34586;53.616;10.032;2023-04-15T11:25:24;14.40;99.90
10873;DHT22;34586;53.616;10.032;2023-04-15T11:27:50;14.40;99.90
10873;DHT22;34586;53.616;10.032;2023-04-15T11:30:18;14.40;99.90
10873;DHT22;34586;53.616;10.032;2023-04-15T11:32:46;14.20;99.90
10873;DHT22;34586;53.616;10.032;2023-04-15T11:35:11;14.30;99.90
10873;DHT22;34586;53.616;10.032;2023-04-15T11:37:37;14.40;99.90
10873;DHT22;34586;53.616;10.032;2023-04-15T11:40:03;14.50;99.90
10873;DHT22;34586;53.616;10.032;2023-04-15T11:42:29;14.60;99.90
10873;DHT22;34586;53.616;10.032;2023-04-15T11:45:12;14.50;99.90
10873;DHT22;34586;53.616;10.032;2023-04-15T11:47:42;14.40;99.90
10873;DHT22;34586;53.616;10.032;2023-04-15T11:50:18;14.60;99.90
10873;DHT22;34586;53.616;10.032;2023-04-15T11:52:59;14.70;99.90
10873;DHT22;34586;53.616;10.032;2023-04-15T11:55:26;14.90;99.90
10873;DHT22;34586;53.616;10.032;2023-04-15T12:00:50;15.20;99.90
10873;DHT22;34586;53.616;10.032;2023-04-15T12:08:56;14.20;99.90
10873;DHT22;34586;53.616;10.032;2023-04-15T12:13:54;14.00;99.90
10873;DHT22;34586;53.616;10.032;2023-04-15T12:16:21;14.10;99.90
10873;DHT22;34586;53.616;10.032;2023-04-15T12:18:50;13.90;99.90
10873;DHT22;34586;53.616;10.032;2023-04-15T12:21:20;14.00;99.90
10873;DHT22;34586;53.616;10.032;2023-04-15T12:23:53;14.00;99.90
10873;DHT22;34586;53.616;10.032;2023-04-15T12:26:27;14.00;99.90
10873;DHT22;34586;53.616;10.032;2023-04-15T12:31:25;13.80;99.90
10873;DHT22;34586;53.616;10.032;2023-04-15T12:33:54;13.60;99.90
10873;DHT22;34586;53.616;10.032;2023-04-15T12:36:20;13.70;99.90
10873;DHT22;34586;53.616;10.032;2023-04-15T12:38:45;13.80;99.90
10873;DHT22;34586;53.616;10.032;2023-04-15T12:41:11;13.90;99.90
10873;DHT22;34586;53.616;10.032;2023-04-15T12:43:36;14.10;99.90
10873;DHT22;34586;53.616;10.032;2023-04-15T12:46:02;13.90;99.90
10873;DHT22;34586;53.616;10.032;2023-04-15T12:48:29;14.10;99.90
10873;DHT22;34586;53.616;10.032;2023-04-15T12:50:55;14.30;99.90
10873;DHT22;34586;53.616;10.032;2023-04-15T12:53:20;14.50;99.90
10873;DHT22;34586;53.616;10.032;2023-04-15T12:55:46;14.60;99.90
10873;DHT22;34586;53.616;10.032;2023-04-15T12:58:12;14.70;99.90
10873;DHT22;34586;53.616;10.032;2023-04-15T13:00:38;14.70;99.90
10873;DHT22;34586;53.616;10.032;2023-04-15T13:03:04;14.80;99.90
10873;DHT22;34586;53.616;10.032;2023-04-15T13:05:29;14.80;99.90
10873;DHT22;34586;53.616;10.032;2023-04-15T13:07:55;15.00;99.90
10873;DHT22;34586;53.616;10.032;2023-04-15T13:10:21;15.10;99.90
10873;DHT22;34586;53.616;10.032;2023-04-15T13:12:48;15.20;99.90
10873;DHT22;34586;53.616;10.032;2023-04-15T13:15:14;15.30;99.90
10873;DHT22;34586;53.616;10.032;2023-04-15T13:17:43;15.50;99.90
10873;DHT22;34586;53.616;10.032;2023-04-15T13:20:09;15.30;99.90
10873;DHT22;34586;53.616;10.032;2023-04-15T13:22:35;15.30;99.90
10873;DHT22;34586;53.616;10.032;2023-04-15T13:25:00;15.20;99.90
10873;DHT22;34586;53.616;10.032;2023-04-15T13:27:26;15.40;99.90
10873;DHT22;34586;53.616;10.032;2023-04-15T13:29:52;15.20;99.90
10873;DHT22;34586;53.616;10.032;2023-04-15T13:32:18;15.30;99.90
10873;DHT22;34586;53.616;10.032;2023-04-15T13:34:43;15.20;99.90
10873;DHT22;34586;53.616;10.032;2023-04-15T13:37:09;15.20;99.90
10873;DHT22;34586;53.616;10.032;2023-04-15T13:39:35;15.10;99.90
10873;DHT22;34586;53.616;10.032;2023-04-15T13:42:01;15.40;99.90
10873;DHT22;34586;53.616;10.032;2023-04-15T13:44:27;15.60;99.90
10873;DHT22;34586;53.616;10.032;2023-04-15T13:46:53;15.60;99.90
10873;DHT22;34586;53.616;10.032;2023-04-15T13:49:18;15.70;99.90
10873;DHT22;34586;53.616;10.032;2023-04-15T13:51:44;15.60;99.90
10873;DHT22;34586;53.616;10.032;2023-04-15T13:54:10;15.50;99.90
10873;DHT22;34586;53.616;10.032;2023-04-15T13:56:35;15.70;99.90
10873;DHT22;34586;53.616;10.032;2023-04-15T13:59:01;16.10;99.90
10873;DHT22;34586;53.616;10.032;2023-04-15T14:01:28;16.20;99.90
10873;DHT22;34586;53.616;10.032;2023-04-15T14:03:54;16.50;99.90
10873;DHT22;34586;53.616;10.032;2023-04-15T14:06:19;16.20;99.90
10873;DHT22;34586;53.616;10.032;2023-04-15T14:08:45;16.00;99.90
10873;DHT22;34586;53.616;10.032;2023-04-15T14:11:11;16.30;99.90
10873;DHT22;34586;53.616;10.032;2023-04-15T14:13:37;16.70;99.90
10873;DHT22;34586;53.616;10.032;2023-04-15T14:16:02;17.20;99.90
10873;DHT22;34586;53.616;10.032;2023-04-15T14:18:28;17.30;99.90
10873;DHT22;34586;53.616;10.032;2023-04-15T14:20:55;17.50;99.90
10873;DHT22;34586;53.616;10.032;2023-04-15T14:23:21;17.30;99.90
10873;DHT22;34586;53.616;10.032;2023-04-15T14:25:47;17.10;99.90
10873;DHT22;34586;53.616;10.032;2023-04-15T14:28:13;17.30;99.90
10873;DHT22;34586;53.616;10.032;2023-04-15T14:30:38;17.20;99.90
10873;DHT22;34586;53.616;10.032;2023-04-15T14:33:04;17.30;99.90
10873;DHT22;34586;53.616;10.032;2023-04-15T14:35:29;16.90;99.90
10873;DHT22;34586;53.616;10.032;2023-04-15T14:37:55;16.70;99.90
10873;DHT22;34586;53.616;10.032;2023-04-15T14:40:21;16.70;99.90
10873;DHT22;34586;53.616;10.032;2023-04-15T14:42:47;16.40;99.90
10873;DHT22;34586;53.616;10.032;2023-04-15T14:45:13;16.20;99.90
10873;DHT22;34586;53.616;10.032;2023-04-15T14:47:39;16.20;99.90
10873;DHT22;34586;53.616;10.032;2023-04-15T14:50:05;16.20;99.90
10873;DHT22;34586;53.616;10.032;2023-04-15T14:52:31;16.10;99.90
10873;DHT22;34586;53.616;10.032;2023-04-15T14:55:10;15.90;99.90
10873;DHT22;34586;53.616;10.032;2023-04-15T14:57:37;15.60;99.90
10873;DHT22;34586;53.616;10.032;2023-04-15T15:00:04;15.30;99.90
10873;DHT22;34586;53.616;10.032;2023-04-15T15:02:31;15.20;99.90
10873;DHT22;34586;53.616;10.032;2023-04-15T15:04:57;15.20;99.90
10873;DHT22;34586;53.616;10.032;2023-04-15T15:07:23;15.10;99.90
10873;DHT22;34586;53.616;10.032;2023-04-15T15:09:49;15.00;99.90
10873;DHT22;34586;53.616;10.032;2023-04-15T15:12:15;14.80;99.90
10873;DHT22;34586;53.616;10.032;2023-04-15T15:14:40;14.80;99.90
10873;DHT22;34586;53.616;10.032;2023-04-15T15:17:06;14.80;99.90
10873;DHT22;34586;53.616;10.032;2023-04-15T15:19:32;14.80;99.90
10873;DHT22;34586;53.616;10.032;2023-04-15T15:21:57;14.80;99.90
10873;DHT22;34586;53.616;10.032;2023-04-15T15:24:23;14.70;99.90
10873;DHT22;34586;53.616;10.032;2023-04-15T15:26:49;14.80;99.90
10873;DHT22;34586;53.616;10.032;2023-04-15T15:29:14;14.70;99.90
10873;DHT22;34586;53.616;10.032;2023-04-15T15:31:40;14.60;99.90
10873;DHT22;34586;53.616;10.032;2023-04-15T15:34:06;14.70;99.90
10873;DHT22;34586;53.616;10.032;2023-04-15T15:36:31;14.60;99.90
10873;DHT22;34586;53.616;10.032;2023-04-15T15:38:57;14.60;99.90
10873;DHT22;34586;53.616;10.032;2023-04-15T15:41:23;14.60;99.90
10873;DHT22;34586;53.616;10.032;2023-04-15T15:43:50;14.60;99.90
10873;DHT22;34586;53.616;10.032;2023-04-15T15:46:16;14.60;99.90
10873;DHT22;34586;53.616;10.032;2023-04-15T15:48:42;14.50;99.90
10873;DHT22;34586;53.616;10.032;2023-04-15T15:51:08;14.50;99.90